sensor_id;sensor_type;location;lat;lon;timestamp;temperature;humidity
58469;DHT22;44257;44.804;10.220;2023-09-18T00:00:03;21.60;99.90
58469;DHT22;44257;44.804;10.220;2023-09-18T00:02:38;21.60;99.90
58469;DHT22;44257;44.804;10.220;2023-09-18T00:05:04;21.60;99.90
58469;DHT22;44257;44.804;10.220;2023-09-18T00:07:30;21.50;99.90
58469;DHT22;44257;44.804;10.220;2023-09-18T00:09:56;21.50;99.90
58469;DHT22;44257;44.804;10.220;2023-09-18T00:12:22;21.50;99.90
58469;DHT22;44257;44.804;10.220;2023-09-18T00:14:48;21.50;99.90
58469;DHT22;44257;44.804;10.220;2023-09-18T00:17:15;21.50;99.90
58469;DHT22;44257;44.804;10.220;2023-09-18T00:19:42;21.50;99.90
58469;DHT22;44257;44.804;10.220;2023-09-18T00:22:08;21.50;99.90
58469;DHT22;44257;44.804;10.220;2023-09-18T00:24:34;21.50;99.90
58469;DHT22;44257;44.804;10.220;2023-09-18T00:27:00;21.40;99.90
58469;DHT22;44257;44.804;10.220;2023-09-18T00:29:26;21.40;99.90
58469;DHT22;44257;44.804;10.220;2023-09-18T00:31:52;21.40;99.90
58469;DHT22;44257;44.804;10.220;2023-09-18T00:34:18;21.30;99.90
58469;DHT22;44257;44.804;10.220;2023-09-18T00:36:44;21.30;99.90
58469;DHT22;44257;44.804;10.220;2023-09-18T00:39:10;21.30;99.90
58469;DHT22;44257;44.804;10.220;2023-09-18T00:41:36;21.30;99.90
58469;DHT22;44257;44.804;10.220;2023-09-18T00:44:02;21.30;99.90
58469;DHT22;44257;44.804;10.220;2023-09-18T00:46:28;21.30;99.90
58469;DHT22;44257;44.804;10.220;2023-09-18T00:48:55;21.40;99.90
58469;DHT22;44257;44.804;10.220;2023-09-18T00:51:21;21.40;99.90
58469;DHT22;44257;44.804;10.220;2023-09-18T00:53:55;21.40;99.90
58469;DHT22;44257;44.804;10.220;2023-09-18T00:56:21;21.50;99.90
58469;DHT22;44257;44.804;10.220;2023-09-18T00:58:47;21.50;99.90
58469;DHT22;44257;44.804;10.220;2023-09-18T01:01:15;21.50;99.90
58469;DHT22;44257;44.804;10.220;2023-09-18T01:03:44;21.50;99.90
58469;DHT22;44257;44.804;10.220;2023-09-18T01:06:10;21.50;99.90
58469;DHT22;44257;44.804;10.220;2023-09-18T01:08:36;21.50;99.90
58469;DHT22;44257;44.804;10.220;2023-09-18T01:11:06;21.50;99.90
58469;DHT22;44257;44.804;10.220;2023-09-18T01:14:00;21.60;99.90
58469;DHT22;44257;44.804;10.220;2023-09-18T01:16:34;21.60;99.90
58469;DHT22;44257;44.804;10.220;2023-09-18T01:19:02;21.70;99.90
58469;DHT22;44257;44.804;10.220;2023-09-18T01:21:29;21.60;99.90
58469;DHT22;44257;44.804;10.220;2023-09-18T01:23:55;21.60;99.90
58469;DHT22;44257;44.804;10.220;2023-09-18T01:26:20;21.60;99.90
58469;DHT22;44257;44.804;10.220;2023-09-18T01:28:47;21.60;99.90
58469;DHT22;44257;44.804;10.220;2023-09-18T01:31:13;21.50;99.90
58469;DHT22;44257;44.804;10.220;2023-09-18T01:33:39;21.50;99.90
58469;DHT22;44257;44.804;10.220;2023-09-18T01:36:07;21.50;99.90
58469;DHT22;44257;44.804;10.220;2023-09-18T01:38:35;21.40;99.90
58469;DHT22;44257;44.804;10.220;2023-09-18T01:41:02;21.40;99.90
58469;DHT22;44257;44.804;10.220;2023-09-18T01:43:27;21.40;99.90
58469;DHT22;44257;44.804;10.220;2023-09-18T01:45:55;21.40;99.90
58469;DHT22;44257;44.804;10.220;2023-09-18T01:48:20;21.40;99.90
58469;DHT22;44257;44.804;10.220;2023-09-18T01:50:46;21.40;99.90
58469;DHT22;44257;44.804;10.220;2023-09-18T01:53:12;21.40;99.90
58469;DHT22;44257;44.804;10.220;2023-09-18T01:55:38;21.40;99.90
58469;DHT22;44257;44.804;10.220;2023-09-18T01:58:04;21.40;99.90
58469;DHT22;44257;44.804;10.220;2023-09-18T02:00:30;21.40;99.90
58469;DHT22;44257;44.804;10.220;2023-09-18T02:02:56;21.40;99.90
58469;DHT22;44257;44.804;10.220;2023-09-18T02:05:22;21.40;99.90
58469;DHT22;44257;44.804;10.220;2023-09-18T02:07:48;21.40;99.90
58469;DHT22;44257;44.804;10.220;2023-09-18T02:10:14;21.40;99.90
58469;DHT22;44257;44.804;10.220;2023-09-18T02:12:40;21.40;99.90
58469;DHT22;44257;44.804;10.220;2023-09-18T02:15:06;21.40;99.90
58469;DHT22;44257;44.804;10.220;2023-09-18T02:17:35;21.40;99.90
58469;DHT22;44257;44.804;10.220;2023-09-18T02:20:03;21.30;99.90
58469;DHT22;44257;44.804;10.220;2023-09-18T02:22:33;21.30;99.90
58469;DHT22;44257;44.804;10.220;2023-09-18T02:24:59;21.40;99.90
58469;DHT22;44257;44.804;10.220;2023-09-18T02:27:26;21.30;99.90
58469;DHT22;44257;44.804;10.220;2023-09-18T02:29:52;21.40;99.90
58469;DHT22;44257;44.804;10.220;2023-09-18T02:32:19;21.40;99.90
58469;DHT22;44257;44.804;10.220;2023-09-18T02:34:45;21.40;99.90
58469;DHT22;44257;44.804;10.220;2023-09-18T02:37:11;21.40;99.90
58469;DHT22;44257;44.804;10.220;2023-09-18T02:39:36;21.40;99.90
58469;DHT22;44257;44.804;10.220;2023-09-18T02:42:02;21.40;99.90
58469;DHT22;44257;44.804;10.220;2023-09-18T02:44:28;21.30;99.90
58469;DHT22;44257;44.804;10.220;2023-09-18T02:46:54;21.30;99.90
58469;DHT22;44257;44.804;10.220;2023-09-18T02:49:20;21.30;99.90
58469;DHT22;44257;44.804;10.220;2023-09-18T02:51:46;21.20;99.90
58469;DHT22;44257;44.804;10.220;2023-09-18T02:54:12;21.20;99.90
58469;DHT22;44257;44.804;10.220;2023-09-18T02:56:37;21.10;99.90
58469;DHT22;44257;44.804;10.220;2023-09-18T02:59:04;21.00;99.90
58469;DHT22;44257;44.804;10.220;2023-09-18T03:01:30;21.00;99.90
58469;DHT22;44257;44.804;10.220;2023-09-18T03:03:55;21.00;99.90
58469;DHT22;44257;44.804;10.220;2023-09-18T03:06:21;21.00;99.90
58469;DHT22;44257;44.804;10.220;2023-09-18T03:08:47;21.00;99.90
58469;DHT22;44257;44.804;10.220;2023-09-18T03:11:14;20.90;99.90
58469;DHT22;44257;44.804;10.220;2023-09-18T03:13:44;21.00;99.90
58469;DHT22;44257;44.804;10.220;2023-09-18T03:16:14;21.00;99.90
58469;DHT22;44257;44.804;10.220;2023-09-18T03:18:41;21.00;99.90
58469;DHT22;44257;44.804;10.220;2023-09-18T03:21:07;21.00;99.90
58469;DHT22;44257;44.804;10.220;2023-09-18T03:23:33;21.00;99.90
58469;DHT22;44257;44.804;10.220;2023-09-18T03:25:58;21.00;99.90
58469;DHT22;44257;44.804;10.220;2023-09-18T03:28:25;21.00;99.90
58469;DHT22;44257;44.804;10.220;2023-09-18T03:30:52;20.90;99.90
58469;DHT22;44257;44.804;10.220;2023-09-18T03:33:20;20.90;99.90
58469;DHT22;44257;44.804;10.220;2023-09-18T03:35:48;20.80;99.90
58469;DHT22;44257;44.804;10.220;2023-09-18T03:38:15;20.80;99.90
58469;DHT22;44257;44.804;10.220;2023-09-18T03:40:42;20.70;99.90
58469;DHT22;44257;44.804;10.220;2023-09-18T03:43:09;20.70;99.90
58469;DHT22;44257;44.804;10.220;2023-09-18T03:45:36;20.60;99.90
58469;DHT22;44257;44.804;10.220;2023-09-18T03:48:02;20.60;99.90
58469;DHT22;44257;44.804;10.220;2023-09-18T03:50:28;20.60;99.90
58469;DHT22;44257;44.804;10.220;2023-09-18T03:52:54;20.60;99.90
58469;DHT22;44257;44.804;10.220;2023-09-18T03:55:19;20.60;99.90
58469;DHT22;44257;44.804;10.220;2023-09-18T03:57:45;20.60;99.90
58469;DHT22;44257;44.804;10.220;2023-09-18T04:00:14;20.60;99.90
58469;DHT22;44257;44.804;10.220;2023-09-18T04:02:40;20.60;99.90
58469;DHT22;44257;44.804;10.220;2023-09-18T04:05:06;20.70;99.90
58469;DHT22;44257;44.804;10.220;2023-09-18T04:07:33;20.70;99.90
58469;DHT22;44257;44.804;10.220;2023-09-18T04:10:00;20.70;99.90
58469;DHT22;44257;44.804;10.220;2023-09-18T04:12:26;20.70;99.90
58469;DHT22;44257;44.804;10.220;2023-09-18T04:14:52;20.70;99.90
58469;DHT22;44257;44.804;10.220;2023-09-18T04:17:18;20.70;99.90
58469;DHT22;44257;44.804;10.220;2023-09-18T04:19:44;20.70;99.90
58469;DHT22;44257;44.804;10.220;2023-09-18T04:22:10;20.80;99.90
58469;DHT22;44257;44.804;10.220;2023-09-18T04:24:35;20.80;99.90
58469;DHT22;44257;44.804;10.220;2023-09-18T04:27:01;20.90;99.90
58469;DHT22;44257;44.804;10.220;2023-09-18T04:29:27;20.90;99.90
58469;DHT22;44257;44.804;10.220;2023-09-18T04:31:53;20.90;99.90
58469;DHT22;44257;44.804;10.220;2023-09-18T04:34:21;20.90;99.90
58469;DHT22;44257;44.804;10.220;2023-09-18T04:36:47;20.90;99.90
58469;DHT22;44257;44.804;10.220;2023-09-18T04:39:14;20.90;99.90
58469;DHT22;44257;44.804;10.220;2023-09-18T04:41:39;20.90;99.90
58469;DHT22;44257;44.804;10.220;2023-09-18T04:44:06;20.90;99.90
58469;DHT22;44257;44.804;10.220;2023-09-18T04:46:34;20.90;99.90
58469;DHT22;44257;44.804;10.220;2023-09-18T04:49:02;20.90;99.90
58469;DHT22;44257;44.804;10.220;2023-09-18T04:51:31;20.90;99.90
58469;DHT22;44257;44.804;10.220;2023-09-18T04:53:58;20.90;99.90
58469;DHT22;44257;44.804;10.220;2023-09-18T04:56:24;20.90;99.90
58469;DHT22;44257;44.804;10.220;2023-09-18T04:58:52;20.90;99.90
58469;DHT22;44257;44.804;10.220;2023-09-18T05:01:18;20.90;99.90
58469;DHT22;44257;44.804;10.220;2023-09-18T05:03:44;20.90;99.90
58469;DHT22;44257;44.804;10.220;2023-09-18T05:06:10;20.90;99.90
58469;DHT22;44257;44.804;10.220;2023-09-18T05:08:36;20.90;99.90
58469;DHT22;44257;44.804;10.220;2023-09-18T05:11:03;20.90;99.90
58469;DHT22;44257;44.804;10.220;2023-09-18T05:13:29;20.90;99.90
58469;DHT22;44257;44.804;10.220;2023-09-18T05:15:55;21.00;99.90
58469;DHT22;44257;44.804;10.220;2023-09-18T05:18:21;21.00;99.90
58469;DHT22;44257;44.804;10.220;2023-09-18T05:20:47;21.00;99.90
58469;DHT22;44257;44.804;10.220;2023-09-18T05:23:13;21.00;99.90
58469;DHT22;44257;44.804;10.220;2023-09-18T05:25:39;21.00;99.90
58469;DHT22;44257;44.804;10.220;2023-09-18T05:28:07;21.00;99.90
58469;DHT22;44257;44.804;10.220;2023-09-18T05:30:34;21.00;99.90
58469;DHT22;44257;44.804;10.220;2023-09-18T05:33:01;21.00;99.90
58469;DHT22;44257;44.804;10.220;2023-09-18T05:35:31;21.00;99.90
58469;DHT22;44257;44.804;10.220;2023-09-18T05:37:57;21.10;99.90
58469;DHT22;44257;44.804;10.220;2023-09-18T05:40:24;21.10;99.90
58469;DHT22;44257;44.804;10.220;2023-09-18T05:42:54;21.20;99.90
58469;DHT22;44257;44.804;10.220;2023-09-18T05:45:20;21.30;99.90
58469;DHT22;44257;44.804;10.220;2023-09-18T05:47:47;21.40;99.90
58469;DHT22;44257;44.804;10.220;2023-09-18T05:50:14;21.50;99.90
58469;DHT22;44257;44.804;10.220;2023-09-18T05:52:51;21.60;99.90
58469;DHT22;44257;44.804;10.220;2023-09-18T05:55:17;21.70;99.90
58469;DHT22;44257;44.804;10.220;2023-09-18T05:57:43;21.90;99.90
58469;DHT22;44257;44.804;10.220;2023-09-18T06:00:09;22.00;99.90
58469;DHT22;44257;44.804;10.220;2023-09-18T06:02:40;22.00;99.90
58469;DHT22;44257;44.804;10.220;2023-09-18T06:05:06;22.10;99.90
58469;DHT22;44257;44.804;10.220;2023-09-18T06:07:32;22.10;99.90
58469;DHT22;44257;44.804;10.220;2023-09-18T06:09:59;22.10;99.90
58469;DHT22;44257;44.804;10.220;2023-09-18T06:12:25;22.20;99.90
58469;DHT22;44257;44.804;10.220;2023-09-18T06:14:51;22.20;99.90
58469;DHT22;44257;44.804;10.220;2023-09-18T06:17:17;22.10;99.90
58469;DHT22;44257;44.804;10.220;2023-09-18T06:19:44;22.00;99.90
58469;DHT22;44257;44.804;10.220;2023-09-18T06:22:11;22.00;99.90
58469;DHT22;44257;44.804;10.220;2023-09-18T06:24:37;22.00;99.90
58469;DHT22;44257;44.804;10.220;2023-09-18T06:27:04;22.10;99.90
58469;DHT22;44257;44.804;10.220;2023-09-18T06:29:30;22.00;99.90
58469;DHT22;44257;44.804;10.220;2023-09-18T06:31:56;22.00;99.90
58469;DHT22;44257;44.804;10.220;2023-09-18T06:34:22;22.00;99.90
58469;DHT22;44257;44.804;10.220;2023-09-18T06:36:48;22.00;99.90
58469;DHT22;44257;44.804;10.220;2023-09-18T06:39:14;22.10;99.90
58469;DHT22;44257;44.804;10.220;2023-09-18T06:41:40;22.10;99.90
58469;DHT22;44257;44.804;10.220;2023-09-18T06:44:06;22.20;99.90
58469;DHT22;44257;44.804;10.220;2023-09-18T06:46:32;22.20;99.90
58469;DHT22;44257;44.804;10.220;2023-09-18T06:48:59;22.30;99.90
58469;DHT22;44257;44.804;10.220;2023-09-18T06:51:29;22.40;99.90
58469;DHT22;44257;44.804;10.220;2023-09-18T06:53:55;22.50;99.90
58469;DHT22;44257;44.804;10.220;2023-09-18T06:56:23;22.60;99.90
58469;DHT22;44257;44.804;10.220;2023-09-18T06:58:50;22.70;99.90
58469;DHT22;44257;44.804;10.220;2023-09-18T07:01:18;22.80;99.90
58469;DHT22;44257;44.804;10.220;2023-09-18T07:03:46;22.90;99.90
58469;DHT22;44257;44.804;10.220;2023-09-18T07:06:15;22.90;99.90
58469;DHT22;44257;44.804;10.220;2023-09-18T07:08:44;22.80;99.90
58469;DHT22;44257;44.804;10.220;2023-09-18T07:11:10;22.80;99.90
58469;DHT22;44257;44.804;10.220;2023-09-18T07:13:37;22.80;99.90
58469;DHT22;44257;44.804;10.220;2023-09-18T07:16:04;22.90;99.90
58469;DHT22;44257;44.804;10.220;2023-09-18T07:18:29;22.90;99.90
58469;DHT22;44257;44.804;10.220;2023-09-18T07:20:55;23.00;99.90
58469;DHT22;44257;44.804;10.220;2023-09-18T07:23:21;23.10;99.90
58469;DHT22;44257;44.804;10.220;2023-09-18T07:25:50;23.20;99.90
58469;DHT22;44257;44.804;10.220;2023-09-18T07:28:16;23.20;99.90
58469;DHT22;44257;44.804;10.220;2023-09-18T07:30:46;23.30;99.90
58469;DHT22;44257;44.804;10.220;2023-09-18T07:33:13;23.40;99.90
58469;DHT22;44257;44.804;10.220;2023-09-18T07:35:49;23.40;99.90
58469;DHT22;44257;44.804;10.220;2023-09-18T07:38:17;23.50;99.90
58469;DHT22;44257;44.804;10.220;2023-09-18T07:40:45;23.60;99.90
58469;DHT22;44257;44.804;10.220;2023-09-18T07:43:12;23.80;99.90
58469;DHT22;44257;44.804;10.220;2023-09-18T07:45:38;23.90;99.90
58469;DHT22;44257;44.804;10.220;2023-09-18T07:48:06;24.00;99.90
58469;DHT22;44257;44.804;10.220;2023-09-18T07:50:33;24.10;99.90
58469;DHT22;44257;44.804;10.220;2023-09-18T07:52:59;24.20;99.90
58469;DHT22;44257;44.804;10.220;2023-09-18T07:55:25;24.40;99.90
58469;DHT22;44257;44.804;10.220;2023-09-18T07:57:52;24.50;99.90
58469;DHT22;44257;44.804;10.220;2023-09-18T08:00:18;24.80;99.90
58469;DHT22;44257;44.804;10.220;2023-09-18T08:02:44;25.00;99.90
58469;DHT22;44257;44.804;10.220;2023-09-18T08:05:10;25.30;99.90
58469;DHT22;44257;44.804;10.220;2023-09-18T08:07:37;25.60;99.90
58469;DHT22;44257;44.804;10.220;2023-09-18T08:10:04;25.80;99.90
58469;DHT22;44257;44.804;10.220;2023-09-18T08:12:34;25.90;99.90
58469;DHT22;44257;44.804;10.220;2023-09-18T08:15:00;26.00;99.90
58469;DHT22;44257;44.804;10.220;2023-09-18T08:17:26;26.00;99.90
58469;DHT22;44257;44.804;10.220;2023-09-18T08:19:52;26.00;99.90
58469;DHT22;44257;44.804;10.220;2023-09-18T08:22:19;26.00;99.90
58469;DHT22;44257;44.804;10.220;2023-09-18T08:24:49;25.90;99.90
58469;DHT22;44257;44.804;10.220;2023-09-18T08:27:19;25.90;99.90
58469;DHT22;44257;44.804;10.220;2023-09-18T08:29:45;25.90;99.90
58469;DHT22;44257;44.804;10.220;2023-09-18T08:32:11;26.00;99.90
58469;DHT22;44257;44.804;10.220;2023-09-18T08:34:37;26.00;99.90
58469;DHT22;44257;44.804;10.220;2023-09-18T08:37:03;26.00;99.90
58469;DHT22;44257;44.804;10.220;2023-09-18T08:39:29;26.10;99.90
58469;DHT22;44257;44.804;10.220;2023-09-18T08:41:59;26.20;99.90
58469;DHT22;44257;44.804;10.220;2023-09-18T08:44:28;26.30;99.90
58469;DHT22;44257;44.804;10.220;2023-09-18T08:46:54;26.40;99.90
58469;DHT22;44257;44.804;10.220;2023-09-18T08:49:23;26.40;99.90
58469;DHT22;44257;44.804;10.220;2023-09-18T08:51:50;26.50;99.90
58469;DHT22;44257;44.804;10.220;2023-09-18T08:54:16;26.60;99.90
58469;DHT22;44257;44.804;10.220;2023-09-18T08:56:43;26.80;99.90
58469;DHT22;44257;44.804;10.220;2023-09-18T08:59:10;26.80;99.90
58469;DHT22;44257;44.804;10.220;2023-09-18T09:01:36;26.90;99.90
58469;DHT22;44257;44.804;10.220;2023-09-18T09:04:02;26.90;99.90
58469;DHT22;44257;44.804;10.220;2023-09-18T09:06:29;26.90;99.90
58469;DHT22;44257;44.804;10.220;2023-09-18T09:08:55;27.00;99.90
58469;DHT22;44257;44.804;10.220;2023-09-18T09:11:21;27.00;99.90
58469;DHT22;44257;44.804;10.220;2023-09-18T09:13:46;27.00;99.90
58469;DHT22;44257;44.804;10.220;2023-09-18T09:16:13;26.90;99.90
58469;DHT22;44257;44.804;10.220;2023-09-18T09:18:50;26.90;99.90
58469;DHT22;44257;44.804;10.220;2023-09-18T09:21:16;26.90;99.90
58469;DHT22;44257;44.804;10.220;2023-09-18T09:23:51;26.90;99.90
58469;DHT22;44257;44.804;10.220;2023-09-18T09:26:19;26.90;99.90
58469;DHT22;44257;44.804;10.220;2023-09-18T09:28:46;26.80;99.90
58469;DHT22;44257;44.804;10.220;2023-09-18T09:31:26;26.80;99.90
58469;DHT22;44257;44.804;10.220;2023-09-18T09:33:53;26.70;99.90
58469;DHT22;44257;44.804;10.220;2023-09-18T09:36:22;26.60;99.90
58469;DHT22;44257;44.804;10.220;2023-09-18T09:38:55;26.60;99.90
58469;DHT22;44257;44.804;10.220;2023-09-18T09:41:22;26.70;99.90
58469;DHT22;44257;44.804;10.220;2023-09-18T09:43:48;26.70;99.90
58469;DHT22;44257;44.804;10.220;2023-09-18T09:46:16;26.60;99.90
58469;DHT22;44257;44.804;10.220;2023-09-18T09:49:04;26.60;99.90
58469;DHT22;44257;44.804;10.220;2023-09-18T09:51:30;26.50;99.90
58469;DHT22;44257;44.804;10.220;2023-09-18T09:53:57;26.40;99.90
58469;DHT22;44257;44.804;10.220;2023-09-18T09:56:45;26.40;99.90
58469;DHT22;44257;44.804;10.220;2023-09-18T09:59:12;26.30;99.90
58469;DHT22;44257;44.804;10.220;2023-09-18T10:01:38;26.20;99.90
58469;DHT22;44257;44.804;10.220;2023-09-18T10:04:10;26.20;99.90
58469;DHT22;44257;44.804;10.220;2023-09-18T10:06:38;26.10;99.90
58469;DHT22;44257;44.804;10.220;2023-09-18T10:09:06;26.20;99.90
58469;DHT22;44257;44.804;10.220;2023-09-18T10:11:41;26.20;99.90
58469;DHT22;44257;44.804;10.220;2023-09-18T10:14:14;26.40;99.90
58469;DHT22;44257;44.804;10.220;2023-09-18T10:16:45;26.50;99.90
58469;DHT22;44257;44.804;10.220;2023-09-18T10:22:13;26.60;99.90
58469;DHT22;44257;44.804;10.220;2023-09-18T10:24:46;26.70;99.90
58469;DHT22;44257;44.804;10.220;2023-09-18T10:27:15;26.90;99.90
58469;DHT22;44257;44.804;10.220;2023-09-18T10:29:43;27.20;99.90
58469;DHT22;44257;44.804;10.220;2023-09-18T10:32:11;27.40;99.90
58469;DHT22;44257;44.804;10.220;2023-09-18T10:34:38;27.50;99.90
58469;DHT22;44257;44.804;10.220;2023-09-18T10:37:04;27.70;99.90
58469;DHT22;44257;44.804;10.220;2023-09-18T10:39:41;27.80;99.90
58469;DHT22;44257;44.804;10.220;2023-09-18T10:42:09;28.00;99.90
58469;DHT22;44257;44.804;10.220;2023-09-18T10:44:36;28.30;99.90
58469;DHT22;44257;44.804;10.220;2023-09-18T10:47:07;28.50;99.90
58469;DHT22;44257;44.804;10.220;2023-09-18T10:49:35;28.70;99.90
58469;DHT22;44257;44.804;10.220;2023-09-18T10:52:00;28.80;99.90
58469;DHT22;44257;44.804;10.220;2023-09-18T10:54:27;29.00;99.90
58469;DHT22;44257;44.804;10.220;2023-09-18T10:56:56;29.20;99.90
58469;DHT22;44257;44.804;10.220;2023-09-18T10:59:22;29.30;99.90
58469;DHT22;44257;44.804;10.220;2023-09-18T11:01:48;29.30;99.90
58469;DHT22;44257;44.804;10.220;2023-09-18T11:04:18;29.40;99.90
58469;DHT22;44257;44.804;10.220;2023-09-18T11:09:26;29.70;99.90
58469;DHT22;44257;44.804;10.220;2023-09-18T11:14:22;30.30;99.90
58469;DHT22;44257;44.804;10.220;2023-09-18T11:16:51;30.50;99.90
58469;DHT22;44257;44.804;10.220;2023-09-18T11:19:17;30.60;99.90
58469;DHT22;44257;44.804;10.220;2023-09-18T11:21:45;30.70;99.90
58469;DHT22;44257;44.804;10.220;2023-09-18T11:24:21;30.60;99.90
58469;DHT22;44257;44.804;10.220;2023-09-18T11:26:50;30.50;99.90
58469;DHT22;44257;44.804;10.220;2023-09-18T11:29:22;30.40;99.90
58469;DHT22;44257;44.804;10.220;2023-09-18T11:31:52;30.40;99.90
58469;DHT22;44257;44.804;10.220;2023-09-18T11:34:24;30.50;99.90
58469;DHT22;44257;44.804;10.220;2023-09-18T11:36:55;30.50;99.90
58469;DHT22;44257;44.804;10.220;2023-09-18T11:39:37;30.50;99.90
58469;DHT22;44257;44.804;10.220;2023-09-18T11:42:28;30.50;99.90
58469;DHT22;44257;44.804;10.220;2023-09-18T11:44:54;30.60;99.90
58469;DHT22;44257;44.804;10.220;2023-09-18T11:47:25;30.60;99.90
58469;DHT22;44257;44.804;10.220;2023-09-18T11:49:56;30.70;99.90
58469;DHT22;44257;44.804;10.220;2023-09-18T11:52:27;30.70;99.90
58469;DHT22;44257;44.804;10.220;2023-09-18T11:54:57;30.60;99.90
58469;DHT22;44257;44.804;10.220;2023-09-18T11:57:23;30.60;99.90
58469;DHT22;44257;44.804;10.220;2023-09-18T11:59:50;30.40;99.90
58469;DHT22;44257;44.804;10.220;2023-09-18T12:02:28;30.30;99.90
58469;DHT22;44257;44.804;10.220;2023-09-18T12:04:54;30.00;99.90
58469;DHT22;44257;44.804;10.220;2023-09-18T12:07:20;29.70;99.90
58469;DHT22;44257;44.804;10.220;2023-09-18T12:09:46;29.60;99.90
58469;DHT22;44257;44.804;10.220;2023-09-18T12:12:12;29.40;99.90
58469;DHT22;44257;44.804;10.220;2023-09-18T12:14:40;29.20;99.90
58469;DHT22;44257;44.804;10.220;2023-09-18T12:17:14;29.10;99.90
58469;DHT22;44257;44.804;10.220;2023-09-18T12:19:53;29.00;99.90
58469;DHT22;44257;44.804;10.220;2023-09-18T12:22:26;29.00;99.90
58469;DHT22;44257;44.804;10.220;2023-09-18T12:24:52;28.90;99.90
58469;DHT22;44257;44.804;10.220;2023-09-18T12:27:18;28.80;99.90
58469;DHT22;44257;44.804;10.220;2023-09-18T12:29:44;28.70;99.90
58469;DHT22;44257;44.804;10.220;2023-09-18T12:32:10;28.70;99.90
58469;DHT22;44257;44.804;10.220;2023-09-18T12:34:41;28.70;99.90
58469;DHT22;44257;44.804;10.220;2023-09-18T12:37:12;28.70;99.90
58469;DHT22;44257;44.804;10.220;2023-09-18T12:39:38;28.70;99.90
58469;DHT22;44257;44.804;10.220;2023-09-18T12:42:04;28.80;99.90
58469;DHT22;44257;44.804;10.220;2023-09-18T12:44:30;28.80;99.90
58469;DHT22;44257;44.804;10.220;2023-09-18T12:46:57;28.90;99.90
58469;DHT22;44257;44.804;10.220;2023-09-18T12:49:23;28.90;99.90
58469;DHT22;44257;44.804;10.220;2023-09-18T12:51:58;29.00;99.90
58469;DHT22;44257;44.804;10.220;2023-09-18T12:57:05;29.00;99.90
58469;DHT22;44257;44.804;10.220;2023-09-18T12:59:35;29.10;99.90
58469;DHT22;44257;44.804;10.220;2023-09-18T13:02:02;29.10;99.90
58469;DHT22;44257;44.804;10.220;2023-09-18T13:04:34;29.10;99.90
58469;DHT22;44257;44.804;10.220;2023-09-18T13:07:13;29.10;99.90
58469;DHT22;44257;44.804;10.220;2023-09-18T13:09:40;29.20;99.80
58469;DHT22;44257;44.804;10.220;2023-09-18T13:12:06;29.20;99.90
58469;DHT22;44257;44.804;10.220;2023-09-18T13:15:00;29.20;99.90
58469;DHT22;44257;44.804;10.220;2023-09-18T13:17:45;29.30;99.90
58469;DHT22;44257;44.804;10.220;2023-09-18T13:20:13;29.30;99.90
58469;DHT22;44257;44.804;10.220;2023-09-18T13:22:41;29.40;99.90
58469;DHT22;44257;44.804;10.220;2023-09-18T13:25:09;29.50;99.90
58469;DHT22;44257;44.804;10.220;2023-09-18T13:27:37;29.70;99.90
58469;DHT22;44257;44.804;10.220;2023-09-18T13:30:05;29.70;99.90
58469;DHT22;44257;44.804;10.220;2023-09-18T13:32:36;29.80;99.90
58469;DHT22;44257;44.804;10.220;2023-09-18T13:35:03;29.90;99.90
58469;DHT22;44257;44.804;10.220;2023-09-18T13:37:32;29.90;99.80
58469;DHT22;44257;44.804;10.220;2023-09-18T13:39:58;29.90;99.80
58469;DHT22;44257;44.804;10.220;2023-09-18T13:42:27;29.80;99.70
58469;DHT22;44257;44.804;10.220;2023-09-18T13:44:57;29.70;99.90
58469;DHT22;44257;44.804;10.220;2023-09-18T13:47:23;29.60;99.90
58469;DHT22;44257;44.804;10.220;2023-09-18T13:49:49;29.70;99.90
58469;DHT22;44257;44.804;10.220;2023-09-18T13:52:14;29.80;99.90
58469;DHT22;44257;44.804;10.220;2023-09-18T13:54:41;29.90;99.90
58469;DHT22;44257;44.804;10.220;2023-09-18T13:57:07;30.10;99.80
58469;DHT22;44257;44.804;10.220;2023-09-18T13:59:33;30.30;99.90
58469;DHT22;44257;44.804;10.220;2023-09-18T14:01:59;30.60;99.90
58469;DHT22;44257;44.804;10.220;2023-09-18T14:04:27;31.00;98.80
58469;DHT22;44257;44.804;10.220;2023-09-18T14:06:54;31.40;98.20
58469;DHT22;44257;44.804;10.220;2023-09-18T14:09:19;31.60;97.90
58469;DHT22;44257;44.804;10.220;2023-09-18T14:11:46;31.80;97.50
58469;DHT22;44257;44.804;10.220;2023-09-18T14:14:12;32.00;97.20
58469;DHT22;44257;44.804;10.220;2023-09-18T14:16:38;32.00;96.90
58469;DHT22;44257;44.804;10.220;2023-09-18T14:19:04;31.80;96.40
58469;DHT22;44257;44.804;10.220;2023-09-18T14:21:31;31.50;96.50
58469;DHT22;44257;44.804;10.220;2023-09-18T14:23:59;31.10;96.60
58469;DHT22;44257;44.804;10.220;2023-09-18T14:26:25;30.70;96.90
58469;DHT22;44257;44.804;10.220;2023-09-18T14:28:51;30.30;97.70
58469;DHT22;44257;44.804;10.220;2023-09-18T14:31:16;29.90;97.80
58469;DHT22;44257;44.804;10.220;2023-09-18T14:33:42;29.60;98.50
58469;DHT22;44257;44.804;10.220;2023-09-18T14:36:08;29.40;98.50
58469;DHT22;44257;44.804;10.220;2023-09-18T14:38:33;29.20;98.20
58469;DHT22;44257;44.804;10.220;2023-09-18T14:41:00;29.10;98.50
58469;DHT22;44257;44.804;10.220;2023-09-18T14:43:28;28.90;98.50
58469;DHT22;44257;44.804;10.220;2023-09-18T14:45:54;28.80;98.80
58469;DHT22;44257;44.804;10.220;2023-09-18T14:48:24;28.70;99.00
58469;DHT22;44257;44.804;10.220;2023-09-18T14:50:57;28.60;99.30
58469;DHT22;44257;44.804;10.220;2023-09-18T14:53:22;28.50;99.50
58469;DHT22;44257;44.804;10.220;2023-09-18T14:55:48;28.40;99.60
58469;DHT22;44257;44.804;10.220;2023-09-18T14:58:14;28.30;99.90
58469;DHT22;44257;44.804;10.220;2023-09-18T15:00:40;28.10;99.90
58469;DHT22;44257;44.804;10.220;2023-09-18T15:03:06;28.00;99.50
58469;DHT22;44257;44.804;10.220;2023-09-18T15:05:32;28.00;99.90
58469;DHT22;44257;44.804;10.220;2023-09-18T15:07:58;27.90;99.90
58469;DHT22;44257;44.804;10.220;2023-09-18T15:10:23;27.80;99.90
58469;DHT22;44257;44.804;10.220;2023-09-18T15:12:49;27.70;99.90
58469;DHT22;44257;44.804;10.220;2023-09-18T15:15:15;27.60;99.90
58469;DHT22;44257;44.804;10.220;2023-09-18T15:17:41;27.60;99.90
58469;DHT22;44257;44.804;10.220;2023-09-18T15:20:08;27.50;99.90
58469;DHT22;44257;44.804;10.220;2023-09-18T15:22:34;27.50;99.90
58469;DHT22;44257;44.804;10.220;2023-09-18T15:25:00;27.60;99.90
58469;DHT22;44257;44.804;10.220;2023-09-18T15:27:27;27.80;99.90